Time;durP1;ratioP1;P1;durP2;ratioP2;P2;SDS_P1;SDS_P2;PMS_P1;PMS_P2;Temp;Humidity;BMP_temperature;BMP_pressure;BME280_temperature;BME280_humidity;BME280_pressure;Samples;Min_cycle;Max_cycle;Signal;HPM_P1;HPM_P2
2023/04/14 00:00:12;;;;;;;;;;;;;;;3.37;93.37;100903.38;5058307;28;19978;-47
2023/04/14 00:02:38;;;;;;;;;;;;;;;3.38;92.66;100906.00;5058681;28;19920;-49
2023/04/14 00:05:03;;;;;;;;;;;;;;;3.37;92.56;100903.38;5057697;28;19923;-46
2023/04/14 00:07:29;;;;;;;;;;;;;;;3.35;92.03;100902.41;5058523;28;19995;-45
2023/04/14 00:09:54;;;;;;;;;;;;;;;3.33;92.97;100903.97;5058647;28;19916;-46
2023/04/14 00:12:19;;;;;;;;;;;;;;;3.33;93.57;100901.44;5058700;28;20370;-44
2023/04/14 00:14:45;;;;;;;;;;;;;;;3.31;93.01;100903.88;5055653;28;20011;-44
2023/04/14 00:17:10;;;;;;;;;;;;;;;3.30;92.99;100902.16;5056227;28;19916;-45
2023/04/14 00:19:35;;;;;;;;;;;;;;;3.30;93.41;100897.06;5051882;28;20731;-46
2023/04/14 00:22:01;;;;;;;;;;;;;;;3.32;93.74;100907.31;5052679;28;20015;-46
2023/04/14 00:24:26;;;;;;;;;;;;;;;3.31;93.82;100903.88;5057788;28;19969;-45
2023/04/14 00:26:51;;;;;;;;;;;;;;;3.30;93.89;100908.91;5053262;28;19916;-45
2023/04/14 00:29:16;;;;;;;;;;;;;;;3.30;93.76;100908.91;5055628;28;20679;-44
2023/04/14 00:31:42;;;;;;;;;;;;;;;3.28;93.90;100908.81;5054643;28;20453;-45
2023/04/14 00:34:07;;;;;;;;;;;;;;;3.28;94.10;100910.47;5058230;28;20337;-47
2023/04/14 00:36:32;;;;;;;;;;;;;;;3.26;93.78;100910.38;5060707;28;20273;-45
2023/04/14 00:38:59;;;;;;;;;;;;;;;3.23;93.62;100912.75;5057207;28;19921;-45
2023/04/14 00:41:24;;;;;;;;;;;;;;;3.18;93.18;100906.50;5057921;28;19975;-45
2023/04/14 00:43:53;;;;;;;;;;;;;;;3.12;92.92;100912.13;5058142;28;19924;-46
2023/04/14 00:46:18;;;;;;;;;;;;;;;3.06;92.86;100906.69;5059185;28;19920;-45
2023/04/14 00:48:44;;;;;;;;;;;;;;;3.00;92.42;100911.41;5065004;28;19921;-45
2023/04/14 00:51:09;;;;;;;;;;;;;;;2.95;92.67;100912.78;5059361;28;19962;-46
2023/04/14 00:53:34;;;;;;;;;;;;;;;2.90;92.86;100914.16;5053259;28;20244;-46
2023/04/14 00:56:00;;;;;;;;;;;;;;;2.88;93.75;100913.22;5058480;28;19920;-45
2023/04/14 00:58:25;;;;;;;;;;;;;;;2.89;93.66;100918.38;5060658;28;19916;-48
2023/04/14 01:00:54;;;;;;;;;;;;;;;2.91;93.84;100916.81;5059952;28;19924;-48
2023/04/14 01:03:20;;;;;;;;;;;;;;;2.94;93.51;100922.06;5061500;28;20286;-49
2023/04/14 01:05:45;;;;;;;;;;;;;;;2.98;92.77;100925.69;5060071;28;19982;-46
2023/04/14 01:08:11;;;;;;;;;;;;;;;3.00;92.17;100926.63;5059704;28;19995;-46
2023/04/14 01:10:40;;;;;;;;;;;;;;;3.05;91.75;100932.00;5062955;28;19924;-46
2023/04/14 01:13:06;;;;;;;;;;;;;;;3.09;92.66;100934.78;5061799;28;19912;-47
2023/04/14 01:15:46;;;;;;;;;;;;;;;3.08;93.11;100934.69;5057257;28;19920;-46
2023/04/14 01:18:29;;;;;;;;;;;;;;;3.05;92.81;100930.34;5060028;28;20286;-47
2023/04/14 01:21:00;;;;;;;;;;;;;;;2.98;92.54;100930.75;5064990;28;19978;-46
2023/04/14 01:23:28;;;;;;;;;;;;;;;2.94;92.99;100937.31;5046217;28;19952;-45
2023/04/14 01:25:59;;;;;;;;;;;;;;;2.90;93.70;100929.41;5059398;28;19920;-45
2023/04/14 01:28:27;;;;;;;;;;;;;;;2.90;93.78;100934.47;5049494;28;19963;-46
2023/04/14 01:31:11;;;;;;;;;;;;;;;2.89;94.31;100936.16;5060498;28;19918;-46
2023/04/14 01:33:38;;;;;;;;;;;;;;;2.90;92.12;100931.94;5059251;28;20002;-45
2023/04/14 01:36:05;;;;;;;;;;;;;;;2.91;93.65;100937.16;5057710;28;20259;-47
2023/04/14 01:38:32;;;;;;;;;;;;;;;2.93;93.53;100929.59;5055172;28;19928;-46
2023/04/14 01:41:00;;;;;;;;;;;;;;;2.92;93.49;100938.00;5054261;28;19922;-46
2023/04/14 01:43:26;;;;;;;;;;;;;;;2.91;94.35;100936.22;5054125;28;20434;-46
2023/04/14 01:45:54;;;;;;;;;;;;;;;2.85;93.69;100936.78;5056892;28;19943;-47
2023/04/14 01:48:20;;;;;;;;;;;;;;;2.79;93.53;100935.50;5052189;28;19916;-45
2023/04/14 01:50:46;;;;;;;;;;;;;;;2.76;93.58;100942.94;5055559;28;20116;-46
2023/04/14 01:53:12;;;;;;;;;;;;;;;2.72;93.98;100936.78;5055628;28;19917;-48
2023/04/14 01:55:38;;;;;;;;;;;;;;;2.71;93.62;100942.66;5057596;28;20414;-48
2023/04/14 01:58:05;;;;;;;;;;;;;;;2.67;94.17;100943.28;5049772;28;20708;-45
2023/04/14 02:00:31;;;;;;;;;;;;;;;2.63;94.41;100947.28;5055344;28;19916;-46
2023/04/14 02:02:56;;;;;;;;;;;;;;;2.62;94.35;100947.19;5043419;28;20295;-45
2023/04/14 02:05:23;;;;;;;;;;;;;;;2.61;94.35;100942.91;5053931;28;19928;-46
2023/04/14 02:07:50;;;;;;;;;;;;;;;2.59;94.70;100944.47;5055697;28;20369;-44
2023/04/14 02:10:18;;;;;;;;;;;;;;;2.57;94.76;100944.38;5050226;28;19917;-46
2023/04/14 02:12:43;;;;;;;;;;;;;;;2.54;94.45;100954.31;5053783;28;19919;-46
2023/04/14 02:15:12;;;;;;;;;;;;;;;2.51;94.07;100954.16;5054329;28;19920;-45
2023/04/14 02:17:37;;;;;;;;;;;;;;;2.48;94.64;100953.94;5053445;28;20405;-45
2023/04/14 02:20:03;;;;;;;;;;;;;;;2.48;95.52;100951.41;5049827;28;19924;-47
2023/04/14 02:22:29;;;;;;;;;;;;;;;2.48;95.47;100948.00;5051166;28;20287;-46
2023/04/14 02:24:54;;;;;;;;;;;;;;;2.46;95.82;100947.03;5052423;28;20440;-47
2023/04/14 02:27:29;;;;;;;;;;;;;;;2.45;95.84;100948.69;5056575;28;19930;-46
2023/04/14 02:29:55;;;;;;;;;;;;;;;2.46;95.66;100960.59;5054495;28;20003;-46
2023/04/14 02:32:23;;;;;;;;;;;;;;;2.42;95.47;100956.09;5052228;28;20294;-46
2023/04/14 02:35:00;;;;;;;;;;;;;;;2.38;94.93;100956.72;5057973;28;19920;-46
2023/04/14 02:37:30;;;;;;;;;;;;;;;2.31;94.85;100954.59;5048964;28;19913;-46
2023/04/14 02:39:59;;;;;;;;;;;;;;;2.25;95.37;100960.16;5056982;28;20379;-45
2023/04/14 02:42:26;;;;;;;;;;;;;;;2.25;96.04;100961.81;5063396;28;19916;-44
2023/04/14 02:44:57;;;;;;;;;;;;;;;2.25;96.18;100974.50;5060323;28;19920;-46
2023/04/14 02:47:27;;;;;;;;;;;;;;;2.25;96.18;100977.03;5061365;28;19966;-47
2023/04/14 02:49:55;;;;;;;;;;;;;;;2.26;96.65;100976.25;5060510;28;19912;-44
2023/04/14 02:52:23;;;;;;;;;;;;;;;2.26;96.56;100976.25;5060323;28;19920;-48
2023/04/14 02:54:49;;;;;;;;;;;;;;;2.27;96.92;100980.53;5056906;28;20540;-44
2023/04/14 02:57:14;;;;;;;;;;;;;;;2.28;96.86;100974.69;5062896;28;19943;-45
2023/04/14 02:59:41;;;;;;;;;;;;;;;2.29;96.64;100974.78;5054348;28;19924;-45
2023/04/14 03:02:08;;;;;;;;;;;;;;;2.28;96.43;100980.63;5042858;28;19920;-45
2023/04/14 03:04:34;;;;;;;;;;;;;;;2.28;97.23;100975.56;5055898;28;20058;-46
2023/04/14 03:07:04;;;;;;;;;;;;;;;2.27;97.10;100983.94;5056555;28;19952;-45
2023/04/14 03:09:30;;;;;;;;;;;;;;;2.26;96.69;100979.66;5053941;28;20230;-45
2023/04/14 03:11:57;;;;;;;;;;;;;;;2.24;96.76;100978.66;5036000;28;19912;-47
2023/04/14 03:14:22;;;;;;;;;;;;;;;2.23;96.96;100974.38;5038619;28;19916;-45
2023/04/14 03:16:53;;;;;;;;;;;;;;;2.22;97.04;100979.38;5061151;28;20765;-46
2023/04/14 03:19:22;;;;;;;;;;;;;;;2.20;97.04;100979.28;5059958;28;19928;-45
2023/04/14 03:21:51;;;;;;;;;;;;;;;2.21;96.65;100986.09;5058728;28;20366;-47
2023/04/14 03:24:23;;;;;;;;;;;;;;;2.23;93.61;100976.03;5055363;28;20298;-53
2023/04/14 03:26:51;;;;;;;;;;;;;;;2.26;95.42;100986.41;5058107;28;19928;-52
2023/04/14 03:29:19;;;;;;;;;;;;;;;2.27;95.63;100980.53;5057358;28;19958;-53
2023/04/14 03:31:45;;;;;;;;;;;;;;;2.26;96.78;100981.31;5056791;28;20001;-52
2023/04/14 03:34:14;;;;;;;;;;;;;;;2.26;96.46;100981.31;5059208;28;19931;-50
2023/04/14 03:36:40;;;;;;;;;;;;;;;2.24;97.20;100982.88;5054671;28;19913;-52
2023/04/14 03:39:09;;;;;;;;;;;;;;;2.22;96.74;100986.97;5059796;28;20472;-53
2023/04/14 03:41:36;;;;;;;;;;;;;;;2.20;96.99;100991.09;5040770;28;19913;-51
2023/04/14 03:44:03;;;;;;;;;;;;;;;2.17;96.92;100981.59;5048997;28;19936;-46
2023/04/14 03:46:29;;;;;;;;;;;;;;;2.14;97.42;100979.78;5057622;28;19912;-44
2023/04/14 03:48:56;;;;;;;;;;;;;;;2.13;97.57;100984.75;5057343;28;19920;-46
2023/04/14 03:51:26;;;;;;;;;;;;;;;2.07;97.17;100987.78;5059787;28;19920;-45
2023/04/14 03:53:53;;;;;;;;;;;;;;;2.02;97.14;100991.66;5057105;28;19948;-50
2023/04/14 03:56:18;;;;;;;;;;;;;;;2.00;97.83;100994.88;5056869;28;20337;-53
2023/04/14 03:58:50;;;;;;;;;;;;;;;1.97;97.89;100987.97;5058931;28;19920;-54
2023/04/14 04:01:16;;;;;;;;;;;;;;;1.94;98.14;100987.75;5053107;28;19916;-50
2023/04/14 04:03:42;;;;;;;;;;;;;;;1.90;98.47;100990.00;5055975;28;20445;-51
2023/04/14 04:06:08;;;;;;;;;;;;;;;1.89;98.48;100989.13;5055747;28;19913;-50
2023/04/14 04:08:34;;;;;;;;;;;;;;;1.87;98.58;100991.53;5059254;28;19923;-53
2023/04/14 04:11:00;;;;;;;;;;;;;;;1.85;98.66;100985.50;5059392;28;19963;-51
2023/04/14 04:13:26;;;;;;;;;;;;;;;1.87;99.24;100995.75;5058842;28;19956;-52
2023/04/14 04:15:52;;;;;;;;;;;;;;;1.87;98.95;100990.66;5053586;28;19920;-54
2023/04/14 04:18:19;;;;;;;;;;;;;;;1.85;98.89;101003.25;5049367;28;19921;-51
2023/04/14 04:20:45;;;;;;;;;;;;;;;1.83;98.56;100999.75;5057246;28;19920;-53
2023/04/14 04:23:11;;;;;;;;;;;;;;;1.81;98.72;100997.88;5053811;28;19925;-44
2023/04/14 04:25:37;;;;;;;;;;;;;;;1.82;98.64;101003.06;5056445;28;20081;-52
2023/04/14 04:28:03;;;;;;;;;;;;;;;1.86;98.46;101010.06;5055446;28;19913;-51
2023/04/14 04:30:29;;;;;;;;;;;;;;;1.86;98.21;101009.19;5055919;28;19924;-44
2023/04/14 04:32:55;;;;;;;;;;;;;;;1.90;97.05;101006.09;5057214;28;20394;-45
2023/04/14 04:35:22;;;;;;;;;;;;;;;1.93;97.29;101010.47;5057301;28;20446;-45
2023/04/14 04:37:48;;;;;;;;;;;;;;;1.94;96.54;101015.63;5056521;28;19928;-45
2023/04/14 04:40:13;;;;;;;;;;;;;;;1.94;97.83;101013.09;5051514;28;19987;-46
2023/04/14 04:42:40;;;;;;;;;;;;;;;1.94;98.82;101013.09;5051677;28;20656;-46
2023/04/14 04:45:05;;;;;;;;;;;;;;;1.94;98.77;101015.63;5052862;28;19916;-46
2023/04/14 04:47:30;;;;;;;;;;;;;;;1.92;99.14;101022.28;5057070;28;19996;-50
2023/04/14 04:49:56;;;;;;;;;;;;;;;1.91;99.22;101015.44;5052358;28;20375;-50
2023/04/14 04:52:21;;;;;;;;;;;;;;;1.93;99.48;101018.09;5049361;28;19920;-50
2023/04/14 04:54:51;;;;;;;;;;;;;;;1.94;99.38;101007.16;5055955;28;19982;-49
2023/04/14 04:57:16;;;;;;;;;;;;;;;1.96;100.00;101009.03;5059218;28;20279;-54
2023/04/14 04:59:41;;;;;;;;;;;;;;;2.00;100.00;101007.56;5054953;28;20414;-51
2023/04/14 05:02:06;;;;;;;;;;;;;;;2.04;100.00;101007.84;5053516;28;20290;-52
2023/04/14 05:04:32;;;;;;;;;;;;;;;2.10;100.00;101003.19;5055955;28;19933;-50
2023/04/14 05:06:57;;;;;;;;;;;;;;;2.14;100.00;100997.53;5059674;28;19977;-52
2023/04/14 05:09:22;;;;;;;;;;;;;;;2.20;99.58;100997.03;5057293;28;19913;-52
2023/04/14 05:11:47;;;;;;;;;;;;;;;2.25;100.00;100999.88;5055577;28;19929;-53
2023/04/14 05:14:13;;;;;;;;;;;;;;;2.37;100.00;101010.78;5059491;28;19927;-52
2023/04/14 05:16:38;;;;;;;;;;;;;;;2.66;100.00;100999.91;5050858;28;19927;-53
2023/04/14 05:19:03;;;;;;;;;;;;;;;3.16;100.00;101004.66;5055731;28;19963;-53
2023/04/14 05:21:28;;;;;;;;;;;;;;;3.70;98.15;101006.13;5043920;28;19924;-50
2023/04/14 05:23:54;;;;;;;;;;;;;;;4.20;95.30;100998.81;5051358;28;19925;-55
2023/04/14 05:26:20;;;;;;;;;;;;;;;4.61;91.67;101000.22;5052500;28;19916;-54
2023/04/14 05:28:46;;;;;;;;;;;;;;;5.00;91.83;100995.47;5059374;28;19940;-54
2023/04/14 05:31:11;;;;;;;;;;;;;;;5.38;90.78;100990.66;5061097;28;19920;-53
2023/04/14 05:33:37;;;;;;;;;;;;;;;5.75;89.72;101000.16;5051627;28;19917;-51
2023/04/14 05:36:02;;;;;;;;;;;;;;;6.01;89.01;100985.31;5065798;28;19916;-53
2023/04/14 05:38:28;;;;;;;;;;;;;;;6.26;88.51;100983.13;5048243;28;20009;-53
2023/04/14 05:40:53;;;;;;;;;;;;;;;6.58;87.79;100986.28;5063207;28;19990;-53
2023/04/14 05:43:19;;;;;;;;;;;;;;;6.99;87.33;100991.59;5064133;28;19966;-53
2023/04/14 05:45:47;;;;;;;;;;;;;;;7.24;86.92;100990.97;5066998;28;19960;-45
2023/04/14 05:48:13;;;;;;;;;;;;;;;7.47;85.96;100986.84;5065647;28;19923;-46
2023/04/14 05:50:38;;;;;;;;;;;;;;;7.67;85.25;100984.25;5067261;28;20306;-47
2023/04/14 05:53:04;;;;;;;;;;;;;;;7.69;85.46;100983.50;5067098;28;19921;-46
2023/04/14 05:55:29;;;;;;;;;;;;;;;7.57;85.72;100993.22;5064404;28;19917;-49
2023/04/14 05:57:55;;;;;;;;;;;;;;;7.25;85.80;100994.41;5066884;28;19974;-49
2023/04/14 06:00:22;;;;;;;;;;;;;;;7.07;86.35;100991.91;5057047;28;19920;-48
2023/04/14 06:02:47;;;;;;;;;;;;;;;6.86;86.79;100989.28;5064716;28;19935;-49
2023/04/14 06:05:12;;;;;;;;;;;;;;;6.74;87.15;100991.31;5067162;28;20445;-48
2023/04/14 06:07:40;;;;;;;;;;;;;;;6.56;87.40;100991.34;5051731;28;19978;-45
2023/04/14 06:10:06;;;;;;;;;;;;;;;6.52;86.61;100988.56;5066517;28;19912;-53
2023/04/14 06:12:31;;;;;;;;;;;;;;;6.53;87.13;100993.72;5063873;28;20333;-54
2023/04/14 06:14:56;;;;;;;;;;;;;;;6.62;87.24;100988.19;5066983;28;19932;-53
2023/04/14 06:17:22;;;;;;;;;;;;;;;6.78;86.72;100987.19;5064950;28;20374;-54
2023/04/14 06:19:47;;;;;;;;;;;;;;;6.95;86.35;100989.69;5068265;28;19917;-54
2023/04/14 06:22:18;;;;;;;;;;;;;;;7.20;86.81;100986.53;5062197;28;20112;-55
2023/04/14 06:24:43;;;;;;;;;;;;;;;7.51;84.12;100987.84;5067287;28;19921;-55
2023/04/14 06:27:09;;;;;;;;;;;;;;;7.80;84.67;100982.25;5062758;28;19957;-54
2023/04/14 06:29:34;;;;;;;;;;;;;;;7.83;83.98;100978.09;5060690;28;19999;-55
2023/04/14 06:32:00;;;;;;;;;;;;;;;7.69;83.87;100977.50;5057859;28;20004;-56
2023/04/14 06:34:25;;;;;;;;;;;;;;;7.53;84.35;100987.13;5052480;28;19912;-56
2023/04/14 06:36:51;;;;;;;;;;;;;;;7.39;84.64;100983.06;5061993;28;19936;-55
2023/04/14 06:39:17;;;;;;;;;;;;;;;7.46;84.69;100979.09;5059790;28;19916;-55
2023/04/14 06:41:42;;;;;;;;;;;;;;;7.68;84.89;100986.00;5063051;28;19917;-57
2023/04/14 06:44:07;;;;;;;;;;;;;;;8.01;84.73;100983.94;5060977;28;20018;-55
2023/04/14 06:46:34;;;;;;;;;;;;;;;8.36;84.68;100985.34;5060508;28;20374;-55
2023/04/14 06:49:00;;;;;;;;;;;;;;;8.68;84.41;100980.59;5062734;28;19925;-56
2023/04/14 06:51:26;;;;;;;;;;;;;;;8.94;81.06;100981.56;5064417;28;20068;-54
2023/04/14 06:53:51;;;;;;;;;;;;;;;9.25;82.81;100981.84;5067555;28;19925;-56
2023/04/14 06:56:16;;;;;;;;;;;;;;;9.62;81.68;100977.97;5060412;28;20012;-64
2023/04/14 06:58:42;;;;;;;;;;;;;;;10.00;81.13;100973.19;5061784;28;19912;-64
2023/04/14 07:01:07;;;;;;;;;;;;;;;10.25;78.75;100969.75;5066423;28;20346;-64
2023/04/14 07:03:33;;;;;;;;;;;;;;;10.33;77.07;100964.03;5055902;28;19924;-64
2023/04/14 07:06:02;;;;;;;;;;;;;;;10.33;78.39;100960.59;5057024;28;20272;-64
2023/04/14 07:08:31;;;;;;;;;;;;;;;10.38;76.72;100961.59;5051510;28;19926;-65
2023/04/14 07:11:00;;;;;;;;;;;;;;;10.36;78.99;100961.53;5063301;28;21059;-64
2023/04/14 07:13:26;;;;;;;;;;;;;;;10.40;74.61;100963.38;5061829;28;20012;-58
2023/04/14 07:15:51;;;;;;;;;;;;;;;10.32;75.63;100966.56;5059392;28;20007;-54
2023/04/14 07:18:16;;;;;;;;;;;;;;;10.18;77.92;100961.81;5064815;28;19916;-57
2023/04/14 07:20:41;;;;;;;;;;;;;;;10.24;73.59;100955.16;5066393;28;20418;-55
2023/04/14 07:23:07;;;;;;;;;;;;;;;10.27;75.21;100960.41;5062582;28;19993;-54
2023/04/14 07:25:33;;;;;;;;;;;;;;;10.18;73.64;100960.94;5063256;28;19927;-55
2023/04/14 07:27:59;;;;;;;;;;;;;;;10.15;73.64;100956.59;5065119;28;19945;-57
2023/04/14 07:30:25;;;;;;;;;;;;;;;10.20;73.92;100949.91;5059771;28;19916;-57
2023/04/14 07:32:50;;;;;;;;;;;;;;;10.23;75.10;100951.72;5055256;28;19969;-57
2023/04/14 07:35:15;;;;;;;;;;;;;;;10.35;74.39;100951.22;5056486;28;20393;-58
2023/04/14 07:37:40;;;;;;;;;;;;;;;10.45;72.06;100945.53;5067046;28;19943;-58
2023/04/14 07:40:06;;;;;;;;;;;;;;;10.45;72.10;100951.53;5054861;28;20427;-57
2023/04/14 07:42:31;;;;;;;;;;;;;;;10.48;71.45;100943.03;5053722;28;19920;-56
2023/04/14 07:44:57;;;;;;;;;;;;;;;10.53;71.55;100946.63;5057637;28;19982;-57
2023/04/14 07:47:22;;;;;;;;;;;;;;;10.60;71.87;100929.66;5063932;28;19923;-58
2023/04/14 07:49:47;;;;;;;;;;;;;;;10.70;71.66;100940.28;5062151;28;20378;-57
2023/04/14 07:52:12;;;;;;;;;;;;;;;10.76;72.89;100937.00;5067138;28;20252;-56
2023/04/14 07:54:40;;;;;;;;;;;;;;;10.83;71.59;100933.78;5065565;28;19920;-57
2023/04/14 07:57:08;;;;;;;;;;;;;;;10.89;70.44;100940.78;5052308;28;19920;-57
2023/04/14 07:59:34;;;;;;;;;;;;;;;10.99;71.56;100929.94;5059971;28;19928;-57
2023/04/14 08:01:59;;;;;;;;;;;;;;;11.14;69.82;100926.88;5060599;28;19908;-58
2023/04/14 08:04:25;;;;;;;;;;;;;;;11.21;69.13;100929.66;5064280;28;19927;-59
2023/04/14 08:06:51;;;;;;;;;;;;;;;11.32;68.73;100927.38;5062950;28;19923;-58
2023/04/14 08:09:16;;;;;;;;;;;;;;;11.38;68.61;100924.97;5063559;28;19916;-57
2023/04/14 08:11:41;;;;;;;;;;;;;;;11.53;69.19;100932.22;5061196;28;19919;-56
2023/04/14 08:14:07;;;;;;;;;;;;;;;11.75;66.15;100928.44;5056844;28;20374;-57
2023/04/14 08:16:35;;;;;;;;;;;;;;;11.93;65.57;100933.22;5049363;28;19970;-57
2023/04/14 08:19:01;;;;;;;;;;;;;;;12.11;66.64;100931.06;5049814;28;19927;-57
2023/04/14 08:21:26;;;;;;;;;;;;;;;12.21;65.73;100935.59;5064913;28;19920;-59
2023/04/14 08:23:51;;;;;;;;;;;;;;;12.15;62.31;100935.44;5062233;28;20036;-58
2023/04/14 08:26:17;;;;;;;;;;;;;;;11.95;64.63;100931.53;5060369;28;19925;-56
2023/04/14 08:28:42;;;;;;;;;;;;;;;11.73;65.53;100928.41;5062237;28;19917;-57
2023/04/14 08:31:07;;;;;;;;;;;;;;;11.68;66.04;100932.59;5061561;28;19960;-57
2023/04/14 08:33:33;;;;;;;;;;;;;;;11.79;64.37;100936.28;5060849;28;20302;-57
2023/04/14 08:35:58;;;;;;;;;;;;;;;11.63;63.71;100926.44;5043735;28;19920;-57
2023/04/14 08:38:23;;;;;;;;;;;;;;;11.68;61.64;100932.59;5058918;28;20272;-58
2023/04/14 08:40:53;;;;;;;;;;;;;;;11.59;62.76;100931.47;5043141;28;19924;-57
2023/04/14 08:43:18;;;;;;;;;;;;;;;11.50;61.32;100935.56;5061028;28;20011;-57
2023/04/14 08:45:44;;;;;;;;;;;;;;;11.48;59.28;100936.38;5061051;28;20071;-57
2023/04/14 08:48:10;;;;;;;;;;;;;;;11.49;62.05;100935.53;5056701;28;20016;-56
2023/04/14 08:50:37;;;;;;;;;;;;;;;11.50;58.40;100930.41;5031997;28;20006;-55
2023/04/14 08:53:04;;;;;;;;;;;;;;;11.53;61.55;100934.78;5057188;28;19959;-55
2023/04/14 08:55:31;;;;;;;;;;;;;;;11.67;60.21;100938.56;5060314;28;19909;-54
2023/04/14 08:57:57;;;;;;;;;;;;;;;11.61;58.32;100929.81;5061053;28;19912;-55
2023/04/14 09:00:22;;;;;;;;;;;;;;;11.61;60.80;100930.69;5061009;28;19915;-55
2023/04/14 09:02:48;;;;;;;;;;;;;;;11.73;59.88;100938.72;5063677;28;19912;-54
2023/04/14 09:05:14;;;;;;;;;;;;;;;11.89;60.20;100933.97;5064175;28;19912;-54
2023/04/14 09:07:41;;;;;;;;;;;;;;;11.88;55.88;100932.22;5065829;28;19920;-56
2023/04/14 09:10:07;;;;;;;;;;;;;;;11.91;56.02;100924.59;5065375;28;19919;-56
2023/04/14 09:12:32;;;;;;;;;;;;;;;11.87;59.10;100927.91;5067673;28;19917;-54
2023/04/14 09:14:58;;;;;;;;;;;;;;;11.96;57.71;100915.25;5068291;28;19916;-54
2023/04/14 09:17:29;;;;;;;;;;;;;;;12.18;56.57;100920.03;5061157;28;20377;-55
2023/04/14 09:19:54;;;;;;;;;;;;;;;12.14;58.10;100914.81;5065599;28;19912;-55
2023/04/14 09:22:20;;;;;;;;;;;;;;;12.31;57.05;100908.28;5065960;28;20010;-55
2023/04/14 09:24:46;;;;;;;;;;;;;;;12.25;56.40;100921.91;5053585;28;19959;-55
2023/04/14 09:27:11;;;;;;;;;;;;;;;12.27;56.47;100922.84;5057072;28;19917;-55
2023/04/14 09:29:36;;;;;;;;;;;;;;;12.27;56.92;100920.25;5068638;28;19920;-56
2023/04/14 09:32:03;;;;;;;;;;;;;;;12.34;57.83;100921.25;5067606;28;20003;-56
2023/04/14 09:34:28;;;;;;;;;;;;;;;12.48;58.13;100911.22;5065158;28;19916;-57
2023/04/14 09:37:05;;;;;;;;;;;;;;;12.58;57.17;100910.59;5062734;28;19916;-56
2023/04/14 09:39:31;;;;;;;;;;;;;;;12.78;57.26;100909.28;5049870;28;19955;-56
2023/04/14 09:42:00;;;;;;;;;;;;;;;12.95;54.95;100903.59;5064097;28;19961;-57
2023/04/14 09:44:26;;;;;;;;;;;;;;;13.02;56.91;100897.69;5064075;28;19912;-57
2023/04/14 09:47:09;;;;;;;;;;;;;;;13.13;54.61;100904.78;5063699;28;19916;-57
2023/04/14 09:49:35;;;;;;;;;;;;;;;13.31;54.29;100896.53;5062992;28;20390;-57
2023/04/14 09:52:07;;;;;;;;;;;;;;;13.27;54.50;100894.72;5061614;28;19909;-56
2023/04/14 09:54:33;;;;;;;;;;;;;;;13.41;53.06;100898.44;5040651;28;20440;-57
2023/04/14 09:56:58;;;;;;;;;;;;;;;13.33;51.73;100886.22;5051692;28;20007;-56
2023/04/14 09:59:33;;;;;;;;;;;;;;;13.05;52.91;100890.00;5058247;28;20749;-56
2023/04/14 10:02:02;;;;;;;;;;;;;;;13.05;53.89;100887.44;5064953;28;20378;-57
2023/04/14 10:04:27;;;;;;;;;;;;;;;13.21;53.36;100880.84;5064706;28;19920;-56
2023/04/14 10:06:59;;;;;;;;;;;;;;;13.23;52.37;100880.06;5049475;28;20110;-56
2023/04/14 10:09:26;;;;;;;;;;;;;;;13.12;52.79;100881.53;5063982;28;19924;-58
2023/04/14 10:12:12;;;;;;;;;;;;;;;13.22;52.82;100880.88;5063350;28;19916;-56
2023/04/14 10:14:38;;;;;;;;;;;;;;;13.17;53.04;100877.31;5062977;28;19915;-56
2023/04/14 10:17:04;;;;;;;;;;;;;;;13.09;52.56;100878.88;5059448;28;20287;-55
2023/04/14 10:19:29;;;;;;;;;;;;;;;13.06;53.92;100868.53;5064171;28;19954;-57
2023/04/14 10:21:56;;;;;;;;;;;;;;;13.26;54.93;100858.56;5062937;28;20017;-56
2023/04/14 10:24:22;;;;;;;;;;;;;;;13.62;52.44;100858.28;5064816;28;19967;-56
2023/04/14 10:26:48;;;;;;;;;;;;;;;13.72;50.22;100861.91;5062989;28;19919;-55
2023/04/14 10:29:15;;;;;;;;;;;;;;;13.64;51.28;100864.34;5061214;28;19927;-56
2023/04/14 10:31:52;;;;;;;;;;;;;;;13.87;51.11;100862.97;5054308;28;19916;-56
2023/04/14 10:34:18;;;;;;;;;;;;;;;14.15;49.47;100853.91;5059201;28;19908;-55
2023/04/14 10:36:43;;;;;;;;;;;;;;;14.04;49.20;100854.59;5060023;28;19939;-54
2023/04/14 10:39:09;;;;;;;;;;;;;;;13.92;49.62;100850.13;5064192;28;19920;-56
2023/04/14 10:41:47;;;;;;;;;;;;;;;13.79;48.18;100854.25;5064756;28;19924;-56
2023/04/14 10:44:28;;;;;;;;;;;;;;;13.59;49.47;100845.31;5065133;28;19924;-56
2023/04/14 10:46:55;;;;;;;;;;;;;;;13.66;48.40;100857.50;5063655;28;20370;-49
2023/04/14 10:49:24;;;;;;;;;;;;;;;13.63;49.98;100844.53;5061322;28;20449;-46
2023/04/14 10:51:49;;;;;;;;;;;;;;;13.72;49.01;100842.09;5064077;28;19912;-49
2023/04/14 10:54:18;;;;;;;;;;;;;;;13.83;49.89;100840.53;5061648;28;20034;-48
2023/04/14 10:57:14;;;;;;;;;;;;;;;14.03;49.65;100837.34;5057665;28;19921;-57
2023/04/14 10:59:42;;;;;;;;;;;;;;;14.14;47.24;100841.81;5052931;28;20380;-57
2023/04/14 11:02:27;;;;;;;;;;;;;;;13.86;48.85;100830.22;5056376;28;20268;-56
2023/04/14 11:05:07;;;;;;;;;;;;;;;13.92;47.99;100835.47;5047137;28;19924;-55
2023/04/14 11:07:53;;;;;;;;;;;;;;;14.03;47.37;100829.59;5053137;28;20576;-56
2023/04/14 11:10:18;;;;;;;;;;;;;;;14.07;49.52;100818.44;5056871;28;19972;-56
2023/04/14 11:12:44;;;;;;;;;;;;;;;14.28;47.64;100821.31;5055654;28;20011;-55
2023/04/14 11:15:10;;;;;;;;;;;;;;;14.34;49.88;100821.38;5060793;28;19969;-55
2023/04/14 11:17:42;;;;;;;;;;;;;;;14.78;47.26;100815.84;5060142;28;20337;-55
2023/04/14 11:20:14;;;;;;;;;;;;;;;14.71;46.04;100825.28;5063865;28;19969;-56
2023/04/14 11:22:40;;;;;;;;;;;;;;;14.39;48.17;100822.31;5058437;28;20313;-57
2023/04/14 11:25:06;;;;;;;;;;;;;;;14.53;47.74;100814.72;5054531;28;19920;-56
2023/04/14 11:27:33;;;;;;;;;;;;;;;14.57;47.84;100807.88;5057495;28;20314;-55
2023/04/14 11:29:59;;;;;;;;;;;;;;;14.69;45.44;100806.28;5058494;28;20745;-56
2023/04/14 11:32:24;;;;;;;;;;;;;;;14.62;46.32;100801.00;5057406;28;19920;-56
2023/04/14 11:34:50;;;;;;;;;;;;;;;14.59;48.85;100803.56;5059496;28;19916;-55
2023/04/14 11:37:15;;;;;;;;;;;;;;;14.77;44.97;100803.75;5055512;28;19920;-56
2023/04/14 11:39:40;;;;;;;;;;;;;;;14.87;45.89;100815.94;5031156;28;20253;-55
2023/04/14 11:42:06;;;;;;;;;;;;;;;14.93;45.56;100804.78;5059651;28;19951;-56
2023/04/14 11:44:31;;;;;;;;;;;;;;;14.89;44.60;100801.28;5059540;28;20386;-55
2023/04/14 11:46:56;;;;;;;;;;;;;;;14.99;47.81;100808.31;5062374;28;19916;-55
2023/04/14 11:49:31;;;;;;;;;;;;;;;15.28;46.21;100812.84;5061013;28;19921;-55
2023/04/14 11:52:02;;;;;;;;;;;;;;;15.51;46.33;100805.25;5043651;28;20271;-57
2023/04/14 11:54:37;;;;;;;;;;;;;;;15.71;45.92;100801.13;5063399;28;19995;-55
2023/04/14 11:57:07;;;;;;;;;;;;;;;15.72;42.20;100817.53;5058635;28;19920;-56
2023/04/14 11:59:39;;;;;;;;;;;;;;;15.55;44.11;100802.69;5060645;28;19921;-55
2023/04/14 12:02:06;;;;;;;;;;;;;;;15.77;45.04;100797.66;5062745;28;19973;-57
2023/04/14 12:04:32;;;;;;;;;;;;;;;16.07;46.48;100792.63;5057278;28;19931;-56
2023/04/14 12:06:57;;;;;;;;;;;;;;;16.22;41.63;100796.16;5057265;28;20324;-55
2023/04/14 12:09:27;;;;;;;;;;;;;;;16.02;41.76;100786.59;5059803;28;19923;-45
2023/04/14 12:11:54;;;;;;;;;;;;;;;15.60;41.12;100794.09;5057358;28;19924;-46
2023/04/14 12:14:19;;;;;;;;;;;;;;;15.53;44.24;100790.56;5046828;28;19909;-46
2023/04/14 12:16:45;;;;;;;;;;;;;;;15.87;42.26;100783.91;5061153;28;19938;-56
2023/04/14 12:19:10;;;;;;;;;;;;;;;15.96;41.85;100790.88;5058168;28;20420;-53
2023/04/14 12:21:36;;;;;;;;;;;;;;;15.91;41.10;100783.06;5055363;28;19917;-56
2023/04/14 12:24:02;;;;;;;;;;;;;;;15.77;41.21;100782.09;5057459;28;19947;-55
2023/04/14 12:26:27;;;;;;;;;;;;;;;15.57;43.74;100784.56;5062149;28;19999;-56
2023/04/14 12:28:56;;;;;;;;;;;;;;;15.70;42.36;100791.56;5059694;28;19928;-56
2023/04/14 12:31:28;;;;;;;;;;;;;;;15.63;41.82;100783.75;5057025;28;19954;-55
2023/04/14 12:33:58;;;;;;;;;;;;;;;15.68;43.06;100784.66;5061429;28;20000;-58
2023/04/14 12:36:23;;;;;;;;;;;;;;;15.72;41.69;100781.25;5058684;28;19938;-56
2023/04/14 12:38:49;;;;;;;;;;;;;;;15.50;42.02;100773.28;5065029;28;20433;-55
2023/04/14 12:41:21;;;;;;;;;;;;;;;15.65;42.64;100787.22;5063767;28;19924;-56